Goleniow, Poland
Current Conditions -  °F | °C
As of 4:30 AM on Sunday 26 Oct 2014 (Local Time) from EPSC Reporting Station
Haze Haze  
Wind Chill: 40°   Ceiling: 300
Heat Index: 43°   Visibility: 1.2mi
Dew Point: 43°   Wind: 5mph
Humidity: 100%   Direction: 160°SSE
Pressure: 30.21"   Gusts: NA
Location:  53.57°N, 14.82°E
Report Text: EPSC 260230Z 16004KT 2000 BR BKN003 06/06 Q1023
Loading
Personal Weather Stations






























Interactive Weather Map
Tropical Storm Tracking
New forecast layout! Learn more

10-Day Weather Forecast

Advertisements
Track Severe Weather on mobile